createdAt,value
2023-03-18T00:00:19.221Z,99.90
2023-03-18T00:02:48.003Z,99.90
2023-03-18T00:05:15.353Z,99.90
2023-03-18T00:07:42.548Z,99.90
2023-03-18T00:10:11.997Z,99.90
2023-03-18T00:12:40.430Z,99.90
2023-03-18T00:15:09.384Z,99.90
2023-03-18T00:17:37.973Z,99.90
2023-03-18T00:20:06.994Z,99.90
2023-03-18T00:22:35.865Z,99.90
2023-03-18T00:25:04.367Z,99.90
2023-03-18T00:27:31.516Z,99.90
2023-03-18T00:29:58.588Z,99.90
2023-03-18T00:32:29.263Z,99.90
2023-03-18T00:34:56.989Z,99.90
2023-03-18T00:37:31.467Z,99.90
2023-03-18T00:39:59.812Z,99.90
2023-03-18T00:42:26.671Z,99.90
2023-03-18T00:44:53.555Z,99.90
2023-03-18T00:47:21.369Z,99.90
2023-03-18T00:49:48.408Z,99.90
2023-03-18T00:52:15.328Z,99.90
2023-03-18T00:54:42.106Z,99.90
2023-03-18T00:57:10.871Z,99.90
2023-03-18T00:59:37.972Z,99.90
2023-03-18T01:02:05.079Z,99.90
2023-03-18T01:04:32.612Z,99.90
2023-03-18T01:06:59.583Z,99.90
2023-03-18T01:09:26.628Z,99.90
2023-03-18T01:11:53.582Z,99.90
2023-03-18T01:14:20.488Z,99.90
2023-03-18T01:16:47.428Z,99.90
2023-03-18T01:19:16.095Z,99.90
2023-03-18T01:21:43.483Z,99.90
2023-03-18T01:24:11.407Z,99.90
2023-03-18T01:26:39.254Z,99.90
2023-03-18T01:29:06.279Z,99.90
2023-03-18T01:31:34.821Z,99.90
2023-03-18T01:34:02.316Z,99.90
2023-03-18T01:36:29.979Z,99.90
2023-03-18T01:38:58.011Z,99.90
2023-03-18T01:41:28.896Z,99.90
2023-03-18T01:43:55.763Z,99.90
2023-03-18T01:46:34.941Z,99.90
2023-03-18T01:49:06.328Z,99.90
2023-03-18T01:51:33.750Z,99.90
2023-03-18T01:54:06.638Z,99.90
2023-03-18T01:56:37.157Z,99.90
2023-03-18T01:59:06.354Z,99.90
2023-03-18T02:01:50.238Z,99.90
2023-03-18T02:04:17.836Z,99.90
2023-03-18T02:06:44.990Z,99.90
2023-03-18T02:09:13.173Z,99.90
2023-03-18T02:11:43.745Z,99.90
2023-03-18T02:14:14.112Z,99.90
2023-03-18T02:16:48.707Z,99.90
2023-03-18T02:19:48.308Z,99.90
2023-03-18T02:22:27.551Z,99.90
2023-03-18T02:25:25.609Z,99.90
2023-03-18T02:27:57.365Z,99.90
2023-03-18T02:30:28.622Z,99.90
2023-03-18T02:51:30.514Z,99.90
2023-03-18T02:54:13.320Z,99.90
2023-03-18T02:56:42.384Z,99.90
2023-03-18T02:59:10.230Z,99.90
2023-03-18T03:01:39.507Z,99.90
2023-03-18T03:04:07.774Z,99.90
2023-03-18T03:06:36.244Z,99.90
2023-03-18T03:09:04.769Z,99.90
2023-03-18T03:11:32.066Z,99.90
2023-03-18T03:13:59.346Z,99.90
2023-03-18T03:16:26.318Z,99.90
2023-03-18T03:18:53.357Z,99.90
2023-03-18T03:21:20.803Z,99.90
2023-03-18T03:23:48.371Z,99.90
2023-03-18T03:26:17.046Z,99.90
2023-03-18T03:28:44.353Z,99.90
2023-03-18T03:31:11.551Z,99.90
2023-03-18T03:33:43.669Z,99.90
2023-03-18T03:36:13.176Z,99.90
2023-03-18T03:38:41.628Z,99.90
2023-03-18T03:41:12.540Z,99.90
2023-03-18T03:43:40.518Z,99.90
2023-03-18T04:30:30.941Z,99.90
2023-03-18T04:32:59.734Z,99.90
2023-03-18T04:35:27.147Z,99.90
2023-03-18T04:37:54.712Z,99.90
2023-03-18T04:40:21.859Z,99.90
2023-03-18T04:42:48.802Z,99.90
2023-03-18T04:45:17.334Z,99.90
2023-03-18T04:47:45.394Z,99.90
2023-03-18T04:50:14.371Z,99.90
2023-03-18T04:52:42.422Z,99.90
2023-03-18T04:55:09.698Z,99.90
2023-03-18T04:57:38.480Z,99.90
2023-03-18T05:00:11.807Z,99.90
2023-03-18T05:02:39.918Z,99.90
2023-03-18T05:05:07.830Z,99.90
2023-03-18T05:07:34.853Z,99.90
2023-03-18T05:10:01.824Z,99.90
2023-03-18T05:12:28.645Z,99.90
2023-03-18T05:14:55.579Z,99.90
2023-03-18T05:17:22.419Z,99.90
2023-03-18T05:19:49.863Z,99.90
2023-03-18T05:22:18.574Z,99.90
2023-03-18T05:24:46.137Z,99.90
2023-03-18T05:27:18.492Z,99.90
2023-03-18T05:29:45.994Z,99.90
2023-03-18T05:32:14.907Z,99.90
2023-03-18T05:34:42.336Z,99.90
2023-03-18T05:37:12.260Z,99.90
2023-03-18T05:39:39.177Z,99.90
2023-03-18T05:42:06.995Z,99.90
2023-03-18T05:44:34.174Z,99.90
2023-03-18T05:47:01.802Z,99.90
2023-03-18T05:49:29.225Z,99.90
2023-03-18T05:51:56.229Z,99.90
2023-03-18T05:54:23.457Z,99.90
2023-03-18T05:56:52.492Z,99.90
2023-03-18T05:59:20.472Z,99.90
2023-03-18T06:01:49.104Z,99.90
2023-03-18T06:04:17.341Z,99.90
2023-03-18T06:06:44.277Z,99.90
2023-03-18T06:09:13.235Z,99.90
2023-03-18T06:11:41.676Z,99.90
2023-03-18T06:14:09.037Z,99.90
2023-03-18T06:16:36.501Z,99.90
2023-03-18T06:19:04.774Z,99.90
2023-03-18T06:21:34.428Z,99.90
2023-03-18T06:24:02.357Z,99.90
2023-03-18T06:26:29.701Z,99.90
2023-03-18T06:28:58.510Z,99.90
2023-03-18T06:31:26.166Z,99.90
2023-03-18T06:33:53.488Z,99.90
2023-03-18T06:36:21.703Z,99.90
2023-03-18T06:38:48.732Z,99.90
2023-03-18T06:41:16.423Z,99.90
2023-03-18T06:43:45.751Z,99.90
2023-03-18T07:07:00.678Z,99.90
2023-03-18T07:09:28.849Z,99.90
2023-03-18T07:11:55.825Z,99.90
2023-03-18T07:14:23.455Z,99.90
2023-03-18T07:16:50.417Z,99.90
2023-03-18T07:19:17.970Z,99.90
2023-03-18T07:21:46.011Z,99.90
2023-03-18T07:24:13.225Z,99.90
2023-03-18T07:26:40.080Z,99.90
2023-03-18T07:29:06.881Z,99.90
2023-03-18T07:31:33.653Z,99.90
2023-03-18T07:34:00.536Z,99.90
2023-03-18T07:36:28.213Z,99.90
2023-03-18T07:38:55.037Z,99.90
2023-03-18T07:41:21.934Z,99.90
2023-03-18T07:43:48.772Z,99.90
2023-03-18T07:46:15.684Z,99.90
2023-03-18T07:48:42.465Z,99.90
2023-03-18T07:51:09.448Z,99.90
2023-03-18T07:53:37.201Z,99.90
2023-03-18T07:56:04.532Z,99.90
2023-03-18T07:58:31.305Z,99.90
2023-03-18T08:00:59.830Z,99.90
2023-03-18T08:03:26.655Z,99.90
2023-03-18T08:05:53.571Z,99.90
2023-03-18T08:08:21.911Z,99.90
2023-03-18T08:10:49.031Z,99.90
2023-03-18T08:13:16.038Z,99.90
2023-03-18T08:15:43.196Z,99.90
2023-03-18T08:18:10.024Z,99.90
2023-03-18T08:20:37.018Z,99.90
2023-03-18T08:23:03.992Z,99.90
2023-03-18T08:25:31.182Z,99.90
2023-03-18T08:27:58.429Z,99.90
2023-03-18T08:30:28.631Z,99.90
2023-03-18T08:32:56.218Z,99.90
2023-03-18T08:35:23.535Z,99.90
2023-03-18T08:37:51.615Z,99.90
2023-03-18T08:40:19.640Z,99.90
2023-03-18T08:42:46.998Z,99.90
2023-03-18T08:45:14.000Z,99.90
2023-03-18T08:47:41.757Z,99.90
2023-03-18T08:50:11.574Z,99.90
2023-03-18T08:52:42.373Z,99.90
2023-03-18T08:55:09.948Z,98.70
2023-03-18T08:57:38.065Z,95.60
2023-03-18T09:00:09.161Z,95.40
2023-03-18T09:02:37.867Z,95.50
2023-03-18T09:05:05.894Z,93.20
2023-03-18T09:07:32.946Z,91.60
2023-03-18T09:09:59.852Z,92.40
2023-03-18T09:12:32.844Z,91.30
2023-03-18T09:14:59.918Z,91.30
2023-03-18T09:17:40.295Z,90.10
2023-03-18T09:20:19.611Z,90.60
2023-03-18T09:22:47.475Z,92.60
2023-03-18T09:25:16.950Z,92.40
2023-03-18T09:27:44.151Z,92.00
2023-03-18T09:30:12.034Z,92.00
2023-03-18T09:32:38.961Z,93.90
2023-03-18T09:35:06.720Z,92.60
2023-03-18T09:37:33.533Z,90.60
2023-03-18T09:40:00.644Z,91.30
2023-03-18T09:42:41.041Z,92.20
2023-03-18T09:45:20.776Z,90.00
2023-03-18T09:48:08.942Z,87.80
2023-03-18T09:50:41.654Z,89.80
2023-03-18T09:53:35.707Z,88.90
2023-03-18T09:56:03.481Z,86.60
2023-03-18T09:58:48.210Z,88.50
2023-03-18T10:01:17.138Z,87.10
2023-03-18T10:03:51.374Z,87.00
2023-03-18T10:06:21.361Z,86.00
2023-03-18T10:08:56.428Z,83.10
2023-03-18T10:11:29.281Z,85.40
2023-03-18T10:14:08.737Z,86.70
2023-03-18T10:16:48.702Z,87.10
2023-03-18T10:19:17.077Z,84.00
2023-03-18T10:22:24.810Z,86.50
2023-03-18T10:25:07.051Z,87.60
2023-03-18T10:27:42.879Z,86.20
2023-03-18T10:30:37.932Z,83.70
2023-03-18T10:33:27.632Z,83.60
2023-03-18T10:36:05.009Z,85.80
2023-03-18T10:38:39.677Z,85.30
2023-03-18T10:41:29.183Z,86.00
2023-03-18T10:43:57.365Z,86.50
2023-03-18T10:46:27.080Z,87.00
2023-03-18T10:49:06.340Z,85.50
2023-03-18T10:51:59.128Z,84.10
2023-03-18T10:54:52.739Z,85.50
2023-03-18T10:57:21.741Z,83.00
2023-03-18T10:59:51.470Z,85.00
2023-03-18T11:02:33.262Z,84.10
2023-03-18T11:05:07.288Z,81.90
2023-03-18T11:07:34.214Z,83.80
2023-03-18T11:10:23.844Z,83.10
2023-03-18T11:12:50.928Z,81.30
2023-03-18T11:15:20.912Z,82.60
2023-03-18T11:17:51.797Z,80.60
2023-03-18T11:20:20.848Z,82.60
2023-03-18T11:22:52.673Z,81.90
2023-03-18T11:25:26.658Z,82.00
2023-03-18T11:28:05.752Z,82.90
2023-03-18T11:30:48.952Z,82.20
2023-03-18T11:33:17.808Z,81.90
2023-03-18T11:36:17.699Z,83.40
2023-03-18T11:38:44.804Z,82.00
2023-03-18T11:41:25.460Z,80.70
2023-03-18T11:44:02.111Z,80.10
2023-03-18T11:46:43.462Z,80.40
2023-03-18T11:49:20.126Z,79.10
2023-03-18T11:52:31.336Z,77.70
2023-03-18T11:55:27.325Z,76.30
2023-03-18T11:58:00.090Z,78.00
2023-03-18T12:00:58.567Z,76.30
2023-03-18T12:03:41.111Z,75.30
2023-03-18T12:06:23.142Z,76.10
2023-03-18T12:09:11.401Z,76.00
2023-03-18T12:11:59.183Z,75.60
2023-03-18T12:14:56.799Z,76.20
2023-03-18T12:17:50.415Z,75.30
2023-03-18T12:20:50.754Z,75.00
2023-03-18T12:23:30.084Z,73.40
2023-03-18T12:26:25.368Z,73.20
2023-03-18T12:29:14.358Z,75.70
2023-03-18T12:31:50.375Z,76.10
2023-03-18T12:34:23.544Z,75.60
2023-03-18T12:37:19.485Z,76.40
2023-03-18T12:40:12.777Z,74.00
2023-03-18T12:43:14.768Z,74.10
2023-03-18T12:45:45.304Z,74.00
2023-03-18T12:48:17.458Z,73.50
2023-03-18T12:50:54.526Z,72.50
2023-03-18T12:53:33.512Z,72.60
2023-03-18T12:56:11.473Z,72.20
2023-03-18T12:58:44.069Z,72.00
2023-03-18T13:01:18.514Z,71.60
2023-03-18T13:04:14.137Z,72.00
2023-03-18T13:06:51.318Z,71.80
2023-03-18T13:09:27.057Z,71.70
2023-03-18T13:12:18.834Z,70.70
2023-03-18T13:14:58.418Z,70.90
2023-03-18T13:17:37.243Z,71.80
2023-03-18T13:20:42.798Z,71.70
2023-03-18T13:23:33.953Z,70.80
2023-03-18T13:26:22.213Z,70.60
2023-03-18T13:29:10.904Z,71.20
2023-03-18T13:31:43.634Z,71.00
2023-03-18T13:34:47.937Z,71.80
2023-03-18T13:37:34.783Z,72.00
2023-03-18T13:40:29.104Z,72.50
2023-03-18T13:43:03.103Z,72.50
2023-03-18T13:45:37.755Z,72.50
2023-03-18T13:48:12.602Z,71.60
2023-03-18T13:50:43.359Z,72.10
2023-03-18T13:53:27.907Z,72.50
2023-03-18T13:55:57.881Z,73.10
2023-03-18T13:58:45.583Z,73.30
2023-03-18T14:01:15.724Z,71.80
2023-03-18T14:03:42.732Z,73.60
2023-03-18T14:06:10.397Z,73.50
2023-03-18T14:08:42.968Z,73.40
2023-03-18T14:11:26.415Z,73.30
2023-03-18T14:13:57.183Z,73.20
2023-03-18T14:16:45.634Z,73.90
2023-03-18T14:19:42.536Z,75.50
2023-03-18T14:22:21.641Z,75.20
2023-03-18T14:25:20.265Z,72.80
2023-03-18T14:28:14.746Z,74.10
2023-03-18T14:30:47.782Z,74.20
2023-03-18T14:33:20.626Z,74.50
2023-03-18T14:36:00.327Z,74.90
2023-03-18T14:38:43.939Z,74.70
2023-03-18T14:41:24.925Z,75.40
2023-03-18T14:44:03.767Z,76.30
2023-03-18T14:46:34.760Z,75.70
2023-03-18T14:49:01.909Z,75.40
2023-03-18T14:51:31.732Z,74.70
2023-03-18T14:54:05.600Z,75.20
2023-03-18T14:56:42.518Z,77.00
2023-03-18T14:59:15.842Z,75.30
2023-03-18T15:01:46.817Z,74.90
2023-03-18T15:04:32.258Z,72.60
2023-03-18T15:07:04.765Z,70.70
2023-03-18T15:09:35.113Z,70.60
2023-03-18T15:12:19.637Z,70.20
2023-03-18T15:14:46.869Z,68.40
2023-03-18T15:17:17.384Z,68.60
2023-03-18T15:19:44.957Z,69.10
2023-03-18T15:22:26.201Z,69.40
2023-03-18T15:24:58.275Z,69.00
2023-03-18T15:27:25.891Z,69.10
2023-03-18T15:30:05.509Z,70.10
2023-03-18T15:32:46.585Z,70.20
2023-03-18T15:35:21.564Z,69.50
2023-03-18T15:38:23.378Z,68.90
2023-03-18T15:40:51.781Z,69.40
2023-03-18T15:43:29.456Z,67.70
2023-03-18T15:45:59.225Z,68.40
2023-03-18T15:48:42.093Z,67.70
2023-03-18T15:51:25.202Z,68.70
2023-03-18T15:53:54.706Z,68.20
2023-03-18T15:56:26.593Z,68.10
2023-03-18T15:59:18.065Z,68.50
2023-03-18T16:01:45.193Z,68.50
2023-03-18T16:04:15.740Z,67.60
2023-03-18T16:06:43.431Z,66.60
2023-03-18T16:09:24.945Z,67.70
2023-03-18T16:11:57.490Z,67.40
2023-03-18T16:14:28.903Z,68.00
2023-03-18T16:16:55.908Z,67.60
2023-03-18T16:19:30.336Z,68.40
2023-03-18T16:21:59.058Z,67.20
2023-03-18T16:24:26.148Z,66.30
2023-03-18T16:26:54.792Z,67.20
2023-03-18T16:29:31.592Z,67.80
2023-03-18T16:31:59.598Z,68.00
2023-03-18T16:34:26.467Z,68.20
2023-03-18T16:36:53.703Z,67.60
2023-03-18T16:39:24.437Z,69.10
2023-03-18T16:41:52.386Z,69.00
2023-03-18T16:44:21.307Z,67.80
2023-03-18T16:46:54.669Z,69.30
2023-03-18T16:49:29.443Z,69.90
2023-03-18T16:51:57.043Z,69.10
2023-03-18T16:54:29.287Z,69.40
2023-03-18T16:56:58.844Z,69.90
2023-03-18T16:59:31.190Z,70.40
2023-03-18T17:01:58.104Z,70.40
2023-03-18T17:04:30.593Z,72.50
2023-03-18T17:06:59.800Z,72.90
2023-03-18T17:09:27.716Z,71.70
2023-03-18T17:11:59.060Z,74.60
2023-03-18T17:14:32.274Z,72.60
2023-03-18T17:17:02.641Z,74.90
2023-03-18T17:19:29.810Z,76.10
2023-03-18T17:21:56.636Z,74.80
2023-03-18T17:24:23.659Z,76.00
2023-03-18T17:26:51.855Z,77.60
2023-03-18T17:29:27.288Z,78.70
2023-03-18T17:31:55.259Z,78.10
2023-03-18T17:34:23.926Z,77.10
2023-03-18T17:36:51.023Z,78.60
2023-03-18T17:39:17.957Z,80.70
2023-03-18T17:41:44.807Z,81.90
2023-03-18T17:44:29.717Z,82.10
2023-03-18T17:46:57.244Z,82.90
2023-03-18T17:49:26.581Z,85.00
2023-03-18T17:51:54.998Z,90.90
2023-03-18T17:54:25.226Z,88.70
2023-03-18T17:56:53.079Z,87.70
2023-03-18T17:59:21.140Z,90.70
2023-03-18T18:01:49.977Z,88.60
2023-03-18T18:04:19.036Z,90.40
2023-03-18T18:06:48.810Z,91.00
2023-03-18T18:09:16.535Z,91.00
2023-03-18T18:11:48.667Z,92.10
2023-03-18T18:14:27.316Z,91.30
2023-03-18T18:16:56.270Z,90.90
2023-03-18T18:19:24.334Z,92.60
2023-03-18T18:21:52.362Z,93.10
2023-03-18T18:24:38.335Z,93.00
2023-03-18T18:27:05.479Z,93.90
2023-03-18T18:29:34.930Z,95.10
2023-03-18T18:32:02.339Z,95.90
2023-03-18T18:34:29.218Z,94.20
2023-03-18T18:36:56.502Z,94.40
2023-03-18T18:39:23.376Z,96.70
2023-03-18T18:41:50.304Z,97.00
2023-03-18T18:44:18.016Z,96.10
2023-03-18T19:57:22.613Z,99.90
2023-03-18T19:59:50.658Z,99.90
2023-03-18T20:02:28.826Z,99.90
2023-03-18T20:04:58.043Z,99.90
2023-03-18T20:07:27.217Z,99.90
2023-03-18T20:09:55.088Z,99.90
2023-03-18T20:12:27.333Z,99.90
2023-03-18T20:14:54.345Z,99.90
2023-03-18T20:17:23.952Z,99.90
2023-03-18T20:19:50.889Z,99.90
2023-03-18T20:22:33.870Z,99.90
2023-03-18T20:25:02.209Z,99.90
2023-03-18T20:27:30.074Z,99.90
2023-03-18T20:29:57.289Z,99.90
2023-03-18T20:32:24.354Z,99.90
2023-03-18T20:34:51.180Z,99.90
2023-03-18T20:37:23.441Z,99.90
2023-03-18T20:39:51.754Z,99.90
2023-03-18T20:42:18.998Z,99.90
2023-03-18T20:44:46.379Z,99.90
2023-03-18T20:47:13.587Z,99.90
2023-03-18T20:49:44.574Z,99.90
2023-03-18T20:52:26.743Z,99.90
2023-03-18T20:54:54.559Z,99.90
2023-03-18T20:57:21.472Z,99.90
2023-03-18T20:59:48.810Z,99.90
2023-03-18T21:02:36.368Z,99.90
2023-03-18T21:05:04.352Z,99.90
2023-03-18T21:07:31.526Z,99.90
2023-03-18T21:09:58.465Z,99.90
2023-03-18T21:12:25.487Z,99.90
2023-03-18T21:14:52.462Z,99.90
2023-03-18T21:17:24.717Z,99.90
2023-03-18T21:19:54.164Z,99.90
2023-03-18T21:22:24.971Z,99.90
2023-03-18T21:24:52.085Z,99.90
2023-03-18T21:27:23.799Z,99.90
2023-03-18T21:29:52.099Z,99.90
2023-03-18T21:32:24.972Z,99.90
2023-03-18T21:34:52.788Z,99.90
2023-03-18T21:37:22.333Z,99.90
2023-03-18T21:39:50.138Z,99.90
2023-03-18T21:42:22.736Z,99.90
2023-03-18T21:44:50.434Z,99.90
2023-03-18T22:49:42.594Z,99.90
2023-03-18T22:52:30.443Z,99.90
2023-03-18T22:55:00.319Z,99.90
2023-03-18T22:57:28.221Z,99.90
2023-03-18T22:59:56.613Z,99.90
2023-03-18T23:02:26.644Z,99.90
2023-03-18T23:04:55.045Z,99.90
2023-03-18T23:07:28.156Z,99.90
2023-03-18T23:09:57.350Z,99.90
2023-03-18T23:12:26.903Z,99.90
2023-03-18T23:14:54.028Z,99.90
2023-03-18T23:17:23.458Z,99.90
2023-03-18T23:19:51.643Z,99.90
2023-03-18T23:22:28.865Z,99.90
2023-03-18T23:24:56.326Z,99.90
2023-03-18T23:27:24.570Z,99.90
2023-03-18T23:29:51.619Z,99.90
2023-03-18T23:32:19.674Z,99.90
2023-03-18T23:34:47.635Z,99.90
2023-03-18T23:37:15.586Z,99.90
2023-03-18T23:39:48.615Z,99.90
2023-03-18T23:42:17.890Z,99.90
2023-03-18T23:44:44.876Z,99.90
2023-03-18T23:47:13.538Z,99.90
2023-03-18T23:49:40.928Z,99.90
2023-03-18T23:52:10.860Z,99.90
2023-03-18T23:54:39.391Z,99.90
2023-03-18T23:57:08.565Z,99.90
2023-03-18T23:59:36.775Z,99.90
